createdAt,value
2022-12-28T00:00:25.991Z,6.15
2022-12-28T00:02:36.024Z,6.14
2022-12-28T00:04:41.359Z,6.15
2022-12-28T00:06:46.159Z,6.15
2022-12-28T00:08:51.345Z,6.15
2022-12-28T00:11:07.935Z,6.15
2022-12-28T00:13:14.349Z,6.15
2022-12-28T00:15:18.284Z,6.15
2022-12-28T00:17:23.242Z,6.15
2022-12-28T00:19:27.086Z,6.14
2022-12-28T00:21:31.168Z,6.14
2022-12-28T00:23:35.083Z,6.15
2022-12-28T00:25:38.722Z,6.15
2022-12-28T00:27:42.271Z,6.14
2022-12-28T00:29:45.923Z,6.13
2022-12-28T00:31:50.268Z,6.13
2022-12-28T00:33:55.507Z,6.12
2022-12-28T00:36:00.611Z,6.11
2022-12-28T00:38:04.189Z,6.11
2022-12-28T00:40:08.864Z,6.10
2022-12-28T00:42:13.016Z,6.08
2022-12-28T00:44:16.964Z,6.09
2022-12-28T00:46:20.609Z,6.07
2022-12-28T00:48:24.704Z,6.06
2022-12-28T00:50:29.662Z,6.04
2022-12-28T00:52:33.986Z,6.04
2022-12-28T00:54:37.650Z,6.02
2022-12-28T00:56:42.980Z,6.00
2022-12-28T00:58:47.575Z,5.98
2022-12-28T01:00:51.507Z,5.96
2022-12-28T01:02:55.275Z,5.94
2022-12-28T01:04:59.057Z,5.92
2022-12-28T01:07:03.947Z,5.91
2022-12-28T01:09:08.135Z,5.91
2022-12-28T01:11:12.861Z,5.91
2022-12-28T01:13:16.611Z,5.92
2022-12-28T01:15:20.319Z,5.92
2022-12-28T01:17:24.437Z,5.92
2022-12-28T01:19:28.125Z,5.93
2022-12-28T01:21:33.446Z,5.92
2022-12-28T01:23:38.508Z,5.93
2022-12-28T01:25:42.500Z,5.92
2022-12-28T01:27:46.167Z,5.93
2022-12-28T01:29:49.831Z,5.92
2022-12-28T01:31:53.625Z,5.93
2022-12-28T01:33:57.279Z,5.91
2022-12-28T01:36:00.983Z,5.91
2022-12-28T01:38:04.866Z,5.91
2022-12-28T01:40:15.297Z,5.91
2022-12-28T01:42:20.399Z,5.90
2022-12-28T01:44:43.704Z,5.89
2022-12-28T01:46:50.228Z,5.89
2022-12-28T01:49:00.554Z,5.88
2022-12-28T01:51:05.525Z,5.87
2022-12-28T01:53:09.200Z,5.85
2022-12-28T01:55:17.373Z,5.83
2022-12-28T01:57:24.943Z,5.82
2022-12-28T01:59:32.743Z,5.82
2022-12-28T02:01:36.741Z,5.83
2022-12-28T02:03:40.497Z,5.83
2022-12-28T02:05:47.052Z,5.85
2022-12-28T02:07:55.918Z,5.86
2022-12-28T02:10:41.088Z,5.89
2022-12-28T02:12:26.760Z,5.90
2022-12-28T02:14:31.736Z,5.91
2022-12-28T02:16:35.236Z,5.92
2022-12-28T02:18:39.813Z,5.92
2022-12-28T02:20:55.298Z,5.93
2022-12-28T02:23:40.922Z,5.94
2022-12-28T02:26:14.114Z,5.95
2022-12-28T02:28:42.444Z,5.96
2022-12-28T02:30:54.432Z,5.98
2022-12-28T02:33:08.178Z,6.01
2022-12-28T02:35:17.963Z,6.04
2022-12-28T02:37:27.056Z,6.06
2022-12-28T02:39:38.991Z,6.09
2022-12-28T02:41:44.182Z,6.10
2022-12-28T02:43:49.570Z,6.09
2022-12-28T02:46:10.482Z,6.09
2022-12-28T02:48:31.568Z,6.08
2022-12-28T02:50:44.038Z,6.09
2022-12-28T02:53:19.497Z,6.07
2022-12-28T02:55:57.277Z,6.09
2022-12-28T02:58:30.719Z,6.08
2022-12-28T03:00:46.009Z,6.09
2022-12-28T03:02:59.321Z,6.09
2022-12-28T03:05:11.703Z,6.10
2022-12-28T03:07:40.722Z,6.10
2022-12-28T03:09:51.392Z,6.11
2022-12-28T03:12:00.515Z,6.12
2022-12-28T03:14:08.353Z,6.12
2022-12-28T03:16:18.500Z,6.12
2022-12-28T03:18:41.076Z,6.12
2022-12-28T03:21:03.073Z,6.11
2022-12-28T03:23:26.808Z,6.13
2022-12-28T03:25:52.989Z,6.11
2022-12-28T03:28:25.994Z,6.10
2022-12-28T03:30:48.547Z,6.10
2022-12-28T03:32:54.329Z,6.07
2022-12-28T03:34:58.168Z,6.07
2022-12-28T03:37:10.691Z,6.04
2022-12-28T03:39:24.042Z,6.02
2022-12-28T03:41:32.838Z,5.99
2022-12-28T03:43:50.764Z,5.97
2022-12-28T03:45:58.808Z,5.94
2022-12-28T03:48:04.831Z,5.92
2022-12-28T03:50:08.931Z,5.95
2022-12-28T03:52:14.127Z,5.95
2022-12-28T03:54:18.764Z,5.94
2022-12-28T03:56:24.053Z,5.95
2022-12-28T03:58:30.224Z,5.96
2022-12-28T04:00:34.031Z,5.95
2022-12-28T04:02:37.684Z,5.87
2022-12-28T04:04:42.676Z,5.83
2022-12-28T04:06:46.681Z,5.81
2022-12-28T04:08:49.904Z,5.81
2022-12-28T04:10:53.665Z,5.82
2022-12-28T04:12:57.792Z,5.82
2022-12-28T04:15:07.510Z,5.82
2022-12-28T04:17:11.411Z,5.81
2022-12-28T04:19:19.006Z,5.84
2022-12-28T04:21:24.646Z,5.82
2022-12-28T04:23:32.151Z,5.80
2022-12-28T04:26:03.779Z,5.78
2022-12-28T04:28:07.125Z,5.78
2022-12-28T04:30:36.097Z,5.81
2022-12-28T04:32:39.466Z,5.81
2022-12-28T04:34:48.216Z,5.83
2022-12-28T04:36:54.858Z,5.79
2022-12-28T04:38:59.694Z,5.76
2022-12-28T04:41:03.380Z,5.71
2022-12-28T04:43:06.643Z,5.67
2022-12-28T04:45:10.967Z,5.62
2022-12-28T04:47:14.576Z,5.58
2022-12-28T04:49:17.753Z,5.57
2022-12-28T04:51:23.281Z,5.56
2022-12-28T04:53:27.875Z,5.55
2022-12-28T04:55:33.123Z,5.57
2022-12-28T04:57:36.696Z,5.58
2022-12-28T04:59:40.872Z,5.59
2022-12-28T05:01:44.491Z,5.58
2022-12-28T05:03:54.933Z,5.60
2022-12-28T05:06:02.521Z,5.62
2022-12-28T05:08:07.779Z,5.63
2022-12-28T05:10:12.870Z,5.64
2022-12-28T05:12:16.535Z,5.64
2022-12-28T05:14:20.135Z,5.62
2022-12-28T05:16:26.048Z,5.59
2022-12-28T05:18:29.944Z,5.58
2022-12-28T05:20:33.474Z,5.56
2022-12-28T05:22:40.865Z,5.55
2022-12-28T05:24:45.151Z,5.54
2022-12-28T05:26:50.081Z,5.57
2022-12-28T05:28:53.696Z,5.60
2022-12-28T05:31:01.943Z,5.62
2022-12-28T05:33:05.817Z,5.63
2022-12-28T05:35:10.573Z,5.63
2022-12-28T05:37:20.134Z,5.67
2022-12-28T05:39:26.973Z,5.68
2022-12-28T05:41:31.739Z,5.68
2022-12-28T05:43:37.205Z,5.64
2022-12-28T05:45:40.616Z,5.60
2022-12-28T05:47:44.283Z,5.54
2022-12-28T05:49:47.836Z,5.45
2022-12-28T05:51:53.115Z,5.34
2022-12-28T05:53:57.468Z,5.28
2022-12-28T05:56:08.223Z,5.22
2022-12-28T05:58:14.098Z,5.17
2022-12-28T06:00:19.467Z,5.13
2022-12-28T06:02:25.795Z,5.06
2022-12-28T06:04:29.500Z,5.01
2022-12-28T06:06:34.900Z,4.95
2022-12-28T06:08:39.814Z,4.89
2022-12-28T06:10:43.499Z,4.85
2022-12-28T06:12:47.011Z,4.82
2022-12-28T06:14:50.455Z,4.78
2022-12-28T06:16:55.704Z,4.77
2022-12-28T06:18:59.683Z,4.77
2022-12-28T06:21:04.692Z,4.77
2022-12-28T06:23:08.218Z,4.75
2022-12-28T06:25:12.016Z,4.77
2022-12-28T06:27:15.572Z,4.78
2022-12-28T06:29:19.237Z,4.77
2022-12-28T06:31:24.996Z,4.78
2022-12-28T06:33:30.211Z,4.82
2022-12-28T06:35:34.136Z,4.83
2022-12-28T06:37:37.996Z,4.84
2022-12-28T06:39:41.535Z,4.84
2022-12-28T06:41:45.284Z,4.84
2022-12-28T06:43:49.938Z,4.86
2022-12-28T06:45:57.686Z,4.86
2022-12-28T06:48:01.336Z,4.87
2022-12-28T06:50:06.710Z,4.88
2022-12-28T06:52:10.428Z,4.89
2022-12-28T06:54:14.008Z,4.89
2022-12-28T06:56:19.195Z,4.89
2022-12-28T06:58:22.800Z,4.87
2022-12-28T07:00:26.352Z,4.87
2022-12-28T07:02:30.048Z,4.87
2022-12-28T07:04:33.727Z,4.89
2022-12-28T07:06:42.717Z,4.90
2022-12-28T07:08:46.719Z,4.91
2022-12-28T07:10:50.324Z,4.95
2022-12-28T07:12:54.092Z,4.97
2022-12-28T07:14:57.501Z,5.02
2022-12-28T07:17:01.331Z,5.05
2022-12-28T07:19:04.915Z,5.12
2022-12-28T07:21:10.694Z,5.16
2022-12-28T07:23:15.670Z,5.24
2022-12-28T07:25:20.454Z,5.34
2022-12-28T07:27:24.173Z,5.44
2022-12-28T07:29:27.647Z,5.49
2022-12-28T07:31:37.059Z,5.54
2022-12-28T07:33:46.765Z,5.64
2022-12-28T07:35:50.331Z,5.68
2022-12-28T07:37:55.778Z,5.73
2022-12-28T07:40:00.948Z,5.80
2022-12-28T07:42:07.050Z,5.84
2022-12-28T07:44:10.672Z,5.85
2022-12-28T07:46:16.088Z,5.86
2022-12-28T07:48:19.730Z,5.86
2022-12-28T07:50:23.358Z,5.88
2022-12-28T07:52:26.920Z,5.91
2022-12-28T07:54:30.454Z,5.95
2022-12-28T07:58:38.235Z,5.99
2022-12-28T08:00:41.790Z,6.03
2022-12-28T08:02:45.514Z,6.04
2022-12-28T08:04:52.261Z,6.05
2022-12-28T08:06:55.989Z,6.06
2022-12-28T08:09:02.114Z,6.06
2022-12-28T08:11:06.833Z,6.04
2022-12-28T08:13:11.788Z,6.05
2022-12-28T08:15:15.357Z,6.06
2022-12-28T08:17:21.223Z,6.06
2022-12-28T08:19:24.952Z,6.06
2022-12-28T08:21:31.191Z,6.03
2022-12-28T08:23:35.013Z,6.01
2022-12-28T08:25:38.759Z,6.01
2022-12-28T08:27:42.401Z,5.99
2022-12-28T08:29:47.314Z,5.98
2022-12-28T08:31:51.446Z,6.00
2022-12-28T08:33:55.838Z,6.01
2022-12-28T08:35:59.747Z,6.02
2022-12-28T08:38:03.370Z,6.05
2022-12-28T08:40:08.317Z,6.07
2022-12-28T08:42:11.751Z,6.06
2022-12-28T08:44:15.391Z,6.06
2022-12-28T08:46:22.366Z,6.07
2022-12-28T08:48:26.271Z,6.07
2022-12-28T08:50:31.886Z,6.08
2022-12-28T08:52:35.937Z,6.09
2022-12-28T08:54:39.618Z,6.10
2022-12-28T08:56:45.525Z,6.11
2022-12-28T08:58:50.179Z,6.12
2022-12-28T09:00:53.796Z,6.13
2022-12-28T09:03:00.597Z,6.12
2022-12-28T09:05:04.301Z,6.13
2022-12-28T09:07:08.068Z,6.14
2022-12-28T09:09:14.261Z,6.15
2022-12-28T09:11:17.973Z,6.16
2022-12-28T09:13:22.321Z,6.20
2022-12-28T09:15:25.758Z,6.22
2022-12-28T09:17:29.367Z,6.24
2022-12-28T09:19:34.404Z,6.27
2022-12-28T09:21:39.850Z,6.31
2022-12-28T09:23:44.809Z,6.35
2022-12-28T09:25:48.876Z,6.39
2022-12-28T09:27:58.958Z,6.43
2022-12-28T09:30:03.597Z,6.46
2022-12-28T09:32:07.269Z,6.48
2022-12-28T09:36:40.194Z,6.54
2022-12-28T09:38:44.407Z,6.56
2022-12-28T09:40:47.992Z,6.62
2022-12-28T09:42:52.870Z,6.67
2022-12-28T09:45:04.338Z,6.73
2022-12-28T09:47:17.645Z,6.80
2022-12-28T09:49:22.997Z,6.86
2022-12-28T09:51:33.186Z,6.91
2022-12-28T09:53:38.344Z,6.98
2022-12-28T09:55:46.175Z,7.03
2022-12-28T09:57:53.369Z,7.10
2022-12-28T09:59:57.061Z,7.16
2022-12-28T10:02:04.314Z,7.20
2022-12-28T10:04:08.487Z,7.22
2022-12-28T10:06:14.730Z,7.25
2022-12-28T10:08:22.626Z,7.27
2022-12-28T10:10:29.136Z,7.30
2022-12-28T10:12:32.687Z,7.36
2022-12-28T10:14:37.196Z,7.41
2022-12-28T10:16:46.953Z,7.51
2022-12-28T10:18:52.803Z,7.60
2022-12-28T10:20:57.377Z,7.75
2022-12-28T10:23:01.378Z,7.84
2022-12-28T10:25:13.925Z,7.92
2022-12-28T10:27:23.351Z,7.97
2022-12-28T10:29:27.797Z,8.03
2022-12-28T10:31:36.541Z,8.07
2022-12-28T10:33:41.231Z,8.13
2022-12-28T10:35:51.647Z,8.19
2022-12-28T10:38:03.153Z,8.24
2022-12-28T10:40:18.414Z,8.34
2022-12-28T10:42:27.873Z,8.41
2022-12-28T10:44:41.367Z,8.50
2022-12-28T10:46:54.544Z,8.59
2022-12-28T10:49:00.302Z,8.68
2022-12-28T10:51:14.312Z,8.77
2022-12-28T10:53:19.844Z,8.90
2022-12-28T10:55:31.746Z,9.07
2022-12-28T10:57:38.048Z,9.19
2022-12-28T10:59:41.913Z,9.27
2022-12-28T11:01:45.803Z,9.36
2022-12-28T11:04:01.756Z,9.44
2022-12-28T11:06:14.188Z,9.53
2022-12-28T11:08:17.772Z,9.65
2022-12-28T11:10:30.368Z,9.81
2022-12-28T11:12:37.177Z,10.01
2022-12-28T11:14:42.584Z,10.19
2022-12-28T11:16:46.252Z,10.36
2022-12-28T11:18:50.346Z,10.55
2022-12-28T11:20:55.477Z,10.70
2022-12-28T11:22:59.446Z,10.77
2022-12-28T11:25:04.232Z,10.79
2022-12-28T11:27:12.048Z,10.76
2022-12-28T11:29:18.539Z,10.71
2022-12-28T11:31:29.829Z,10.62
2022-12-28T11:33:40.345Z,10.56
2022-12-28T11:35:46.198Z,10.49
2022-12-28T11:37:54.496Z,10.44
2022-12-28T11:40:00.475Z,10.43
2022-12-28T11:42:37.745Z,10.48
2022-12-28T11:44:54.582Z,10.50
2022-12-28T11:47:04.041Z,10.54
2022-12-28T11:49:25.904Z,10.52
2022-12-28T11:51:30.745Z,10.50
2022-12-28T11:53:55.784Z,10.49
2022-12-28T11:56:08.645Z,10.49
2022-12-28T11:59:01.814Z,10.49
2022-12-28T12:01:05.941Z,10.48
2022-12-28T12:03:11.075Z,10.45
2022-12-28T12:05:53.717Z,10.43
2022-12-28T12:07:57.374Z,10.38
2022-12-28T12:10:30.903Z,10.32
2022-12-28T12:12:50.847Z,10.29
2022-12-28T12:14:58.977Z,10.25
2022-12-28T12:17:06.590Z,10.27
2022-12-28T12:19:23.789Z,10.28
2022-12-28T12:21:47.106Z,10.33
2022-12-28T12:23:54.629Z,10.38
2022-12-28T12:26:22.229Z,10.39
2022-12-28T12:28:45.519Z,10.35
2022-12-28T12:30:56.340Z,10.31
2022-12-28T12:33:06.993Z,10.25
2022-12-28T12:35:24.581Z,10.18
2022-12-28T12:37:55.875Z,10.08
2022-12-28T12:40:32.638Z,9.98
2022-12-28T12:42:51.913Z,9.93
2022-12-28T12:45:12.640Z,9.89
2022-12-28T12:47:40.908Z,9.90
2022-12-28T12:50:13.720Z,9.93
2022-12-28T12:52:32.638Z,9.93
2022-12-28T12:54:55.276Z,9.91
2022-12-28T12:57:05.641Z,9.87
2022-12-28T12:59:37.883Z,9.80
2022-12-28T13:01:53.314Z,9.76
2022-12-28T13:04:47.982Z,9.68
2022-12-28T13:07:27.666Z,9.63
2022-12-28T13:09:52.764Z,9.61
2022-12-28T13:12:03.217Z,9.59
2022-12-28T13:14:07.641Z,9.61
2022-12-28T13:16:13.092Z,9.61
2022-12-28T13:18:44.719Z,9.61
2022-12-28T13:20:43.247Z,9.63
2022-12-28T13:22:48.917Z,9.59
2022-12-28T13:24:54.540Z,9.58
2022-12-28T13:26:59.825Z,9.60
2022-12-28T13:29:09.872Z,9.59
2022-12-28T13:31:19.598Z,9.57
2022-12-28T13:33:23.566Z,9.53
2022-12-28T13:35:28.922Z,9.51
2022-12-28T13:37:32.263Z,9.48
2022-12-28T13:39:42.104Z,9.44
2022-12-28T13:41:50.960Z,9.39
2022-12-28T13:44:23.315Z,9.34
2022-12-28T13:46:27.073Z,9.27
2022-12-28T13:48:32.773Z,9.22
2022-12-28T13:50:39.222Z,9.17
2022-12-28T13:52:46.635Z,9.12
2022-12-28T13:54:54.122Z,9.08
2022-12-28T13:57:20.610Z,9.04
2022-12-28T13:59:23.051Z,9.03
2022-12-28T14:01:30.864Z,9.01
2022-12-28T14:03:41.382Z,8.97
2022-12-28T14:05:49.366Z,8.94
2022-12-28T14:07:55.484Z,8.92
2022-12-28T14:09:59.246Z,8.89
2022-12-28T14:12:04.305Z,8.89
2022-12-28T14:14:08.325Z,8.88
2022-12-28T14:16:12.037Z,8.86
2022-12-28T14:18:16.912Z,8.87
2022-12-28T14:20:20.418Z,8.88
2022-12-28T14:22:32.307Z,8.88
2022-12-28T14:24:35.533Z,8.87
2022-12-28T14:26:41.435Z,8.85
2022-12-28T14:28:49.464Z,8.88
2022-12-28T14:30:54.363Z,8.86
2022-12-28T14:32:59.132Z,8.87
2022-12-28T14:35:03.510Z,8.87
2022-12-28T14:37:09.961Z,8.89
2022-12-28T14:39:27.948Z,8.90
2022-12-28T14:41:36.104Z,8.92
2022-12-28T14:43:39.398Z,8.93
2022-12-28T14:48:25.433Z,8.97
2022-12-28T14:50:30.594Z,8.95
2022-12-28T14:52:39.161Z,8.98
2022-12-28T14:54:45.842Z,8.98
2022-12-28T14:56:52.956Z,8.98
2022-12-28T14:58:59.493Z,8.99
2022-12-28T15:00:25.299Z,8.93
2022-12-28T15:01:08.773Z,8.97
2022-12-28T15:03:18.620Z,8.96
2022-12-28T15:05:40.634Z,8.95
2022-12-28T15:07:43.942Z,8.97
2022-12-28T15:09:47.449Z,8.98
2022-12-28T15:11:50.753Z,8.98
2022-12-28T15:13:54.519Z,8.98
2022-12-28T15:15:59.678Z,8.98
2022-12-28T15:18:05.136Z,8.96
2022-12-28T15:20:09.790Z,8.95
2022-12-28T15:22:13.613Z,8.93
2022-12-28T15:24:19.540Z,8.92
2022-12-28T15:26:28.009Z,8.92
2022-12-28T15:28:31.346Z,8.94
2022-12-28T15:30:34.643Z,8.93
2022-12-28T15:32:37.985Z,8.95
2022-12-28T15:34:43.255Z,8.96
2022-12-28T15:36:46.489Z,8.95
2022-12-28T15:38:50.518Z,8.93
2022-12-28T15:40:56.012Z,8.92
2022-12-28T15:42:59.324Z,8.90
2022-12-28T15:45:02.626Z,8.87
2022-12-28T15:47:06.116Z,8.85
2022-12-28T15:49:11.340Z,8.84
2022-12-28T15:51:17.165Z,8.79
2022-12-28T15:53:20.526Z,8.77
2022-12-28T15:55:23.731Z,8.75
2022-12-28T15:57:27.689Z,8.75
2022-12-28T15:59:30.960Z,8.73
2022-12-28T16:01:35.040Z,8.72
2022-12-28T16:03:38.392Z,8.72
2022-12-28T16:05:41.645Z,8.69
2022-12-28T16:07:46.758Z,8.67
2022-12-28T16:09:50.286Z,8.64
2022-12-28T16:11:55.453Z,8.63
2022-12-28T16:14:01.290Z,8.63
2022-12-28T16:16:06.567Z,8.59
2022-12-28T16:18:09.946Z,8.56
2022-12-28T16:20:13.451Z,8.52
2022-12-28T16:22:16.660Z,8.49
2022-12-28T16:24:21.898Z,8.46
2022-12-28T16:26:25.348Z,8.43
2022-12-28T16:28:29.501Z,8.42
2022-12-28T16:30:45.942Z,8.40
2022-12-28T16:32:49.515Z,8.39
2022-12-28T16:34:55.344Z,8.39
2022-12-28T16:36:59.673Z,8.40
2022-12-28T16:39:04.692Z,8.41
2022-12-28T16:41:09.408Z,8.41
2022-12-28T16:43:13.557Z,8.40
2022-12-28T16:45:16.934Z,8.39
2022-12-28T16:47:20.304Z,8.39
2022-12-28T16:49:24.202Z,8.38
2022-12-28T16:51:27.525Z,8.35
2022-12-28T16:53:31.846Z,8.33
2022-12-28T16:55:41.217Z,8.34
2022-12-28T16:57:45.949Z,8.34
2022-12-28T16:59:49.131Z,8.33
2022-12-28T17:01:53.318Z,8.34
2022-12-28T17:04:03.331Z,8.34
2022-12-28T17:06:09.079Z,8.35
2022-12-28T17:08:12.426Z,8.34
2022-12-28T17:10:16.078Z,8.33
2022-12-28T17:12:19.313Z,8.33
2022-12-28T17:14:36.954Z,8.32
2022-12-28T17:16:41.236Z,8.30
2022-12-28T17:18:44.585Z,8.30
2022-12-28T17:20:48.184Z,8.28
2022-12-28T17:22:51.535Z,8.28
2022-12-28T17:24:54.778Z,8.27
2022-12-28T17:27:03.455Z,8.25
2022-12-28T17:29:08.633Z,8.24
2022-12-28T17:31:15.552Z,8.23
2022-12-28T17:33:21.884Z,8.22
2022-12-28T17:35:25.477Z,8.21
2022-12-28T17:37:28.695Z,8.22
2022-12-28T17:39:37.501Z,8.22
2022-12-28T17:41:43.646Z,8.23
2022-12-28T17:43:48.212Z,8.25
2022-12-28T17:45:51.447Z,8.22
2022-12-28T17:47:56.175Z,8.22
2022-12-28T17:49:59.365Z,8.21
2022-12-28T17:52:02.675Z,8.22
2022-12-28T17:54:05.958Z,8.21
2022-12-28T17:56:10.904Z,8.23
2022-12-28T17:58:14.222Z,8.25
2022-12-28T18:00:19.052Z,8.27
2022-12-28T18:02:22.442Z,8.26
2022-12-28T18:04:27.361Z,8.25
2022-12-28T18:06:30.855Z,8.25
2022-12-28T18:08:34.471Z,8.26
2022-12-28T18:10:37.803Z,8.27
2022-12-28T18:12:41.142Z,8.26
2022-12-28T18:14:44.387Z,8.26
2022-12-28T18:16:47.765Z,8.26
2022-12-28T18:18:51.060Z,8.26
2022-12-28T18:20:59.746Z,8.24
2022-12-28T18:23:03.409Z,8.22
2022-12-28T18:25:07.184Z,8.22
2022-12-28T18:27:10.426Z,8.23
2022-12-28T18:29:13.902Z,8.21
2022-12-28T18:31:17.210Z,8.24
2022-12-28T18:33:20.542Z,8.25
2022-12-28T18:35:25.174Z,8.27
2022-12-28T18:37:30.165Z,8.27
2022-12-28T18:39:33.605Z,8.28
2022-12-28T18:41:37.710Z,8.25
2022-12-28T18:43:41.370Z,8.22
2022-12-28T18:45:44.653Z,8.18
2022-12-28T18:47:48.195Z,8.14
2022-12-28T18:49:51.612Z,8.12
2022-12-28T18:51:55.301Z,8.10
2022-12-28T18:54:00.217Z,8.06
2022-12-28T18:56:06.071Z,8.03
2022-12-28T18:58:09.759Z,7.99
2022-12-28T19:00:14.313Z,7.94
2022-12-28T19:02:19.766Z,7.90
2022-12-28T19:04:23.347Z,7.90
2022-12-28T19:06:26.876Z,7.88
2022-12-28T19:08:30.184Z,7.87
2022-12-28T19:10:34.781Z,7.86
2022-12-28T19:12:38.153Z,7.87
2022-12-28T19:14:41.360Z,7.86
2022-12-28T19:16:45.290Z,7.86
2022-12-28T19:18:48.895Z,7.87
2022-12-28T19:20:57.846Z,7.85
2022-12-28T19:23:01.153Z,7.88
2022-12-28T19:25:04.634Z,7.88
2022-12-28T19:27:09.268Z,7.87
2022-12-28T19:29:13.590Z,7.88
2022-12-28T19:31:16.828Z,7.88
2022-12-28T19:33:20.044Z,7.86
2022-12-28T19:35:23.382Z,7.85
2022-12-28T19:37:26.708Z,7.84
2022-12-28T19:39:29.919Z,7.83
2022-12-28T19:41:33.123Z,7.78
2022-12-28T19:43:37.921Z,7.70
2022-12-28T19:45:41.499Z,7.58
2022-12-28T19:47:44.849Z,7.49
2022-12-28T19:49:48.129Z,7.40
2022-12-28T19:51:51.406Z,7.31
2022-12-28T19:53:55.182Z,7.19
2022-12-28T19:55:59.661Z,7.09
2022-12-28T19:58:03.054Z,7.04
2022-12-28T20:00:09.327Z,6.99
2022-12-28T20:02:13.468Z,6.95
2022-12-28T20:04:16.771Z,6.90
2022-12-28T20:06:22.418Z,6.89
2022-12-28T20:08:25.635Z,6.90
2022-12-28T20:10:30.046Z,6.85
2022-12-28T20:12:33.237Z,6.85
2022-12-28T20:14:36.891Z,6.82
2022-12-28T20:16:41.724Z,6.79
2022-12-28T20:18:47.093Z,6.75
2022-12-28T20:21:18.664Z,6.73
2022-12-28T20:23:13.920Z,6.73
2022-12-28T20:25:17.253Z,6.73
2022-12-28T20:27:20.533Z,6.73
2022-12-28T20:29:23.824Z,6.73
2022-12-28T20:31:27.953Z,6.71
2022-12-28T20:33:33.817Z,6.69
2022-12-28T20:35:37.080Z,6.66
2022-12-28T20:37:40.431Z,6.64
2022-12-28T20:39:43.776Z,6.62
2022-12-28T20:42:04.414Z,6.59
2022-12-28T20:44:09.490Z,6.53
2022-12-28T20:46:12.945Z,6.49
2022-12-28T20:48:16.797Z,6.46
2022-12-28T20:50:21.469Z,6.42
2022-12-28T20:52:24.718Z,6.39
2022-12-28T20:54:28.250Z,6.35
2022-12-28T20:56:31.542Z,6.34
2022-12-28T20:58:36.010Z,6.30
2022-12-28T21:00:40.717Z,6.29
2022-12-28T21:02:43.978Z,6.28
2022-12-28T21:04:47.267Z,6.26
2022-12-28T21:06:51.868Z,6.25
2022-12-28T21:08:55.165Z,6.23
2022-12-28T21:10:58.990Z,6.23
2022-12-28T21:13:02.198Z,6.21
2022-12-28T21:15:06.113Z,6.20
2022-12-28T21:17:09.343Z,6.19
2022-12-28T21:19:12.667Z,6.18
2022-12-28T21:21:17.315Z,6.18
2022-12-28T21:23:22.365Z,6.18
2022-12-28T21:25:25.674Z,6.18
2022-12-28T21:27:29.992Z,6.17
2022-12-28T21:29:33.239Z,6.18
2022-12-28T21:31:36.561Z,6.20
2022-12-28T21:33:40.253Z,6.24
2022-12-28T21:35:43.490Z,6.26
2022-12-28T21:37:46.813Z,6.30
2022-12-28T21:39:51.404Z,6.35
2022-12-28T21:41:54.720Z,6.35
2022-12-28T21:43:57.994Z,6.34
2022-12-28T21:46:03.147Z,6.33
2022-12-28T21:48:06.633Z,6.31
2022-12-28T21:50:11.997Z,6.30
2022-12-28T21:52:15.343Z,6.27
2022-12-28T21:54:19.974Z,6.26
2022-12-28T21:56:25.095Z,6.25
2022-12-28T21:58:28.291Z,6.25
2022-12-28T22:00:49.272Z,6.25
2022-12-28T22:03:09.929Z,6.24
2022-12-28T22:05:32.186Z,6.20
2022-12-28T22:07:36.138Z,6.17
2022-12-28T22:09:57.625Z,6.15
2022-12-28T22:12:19.657Z,6.14
2022-12-28T22:14:22.985Z,6.10
2022-12-28T22:16:25.451Z,6.09
2022-12-28T22:20:52.086Z,6.06
2022-12-28T22:22:57.917Z,6.05
2022-12-28T22:25:01.156Z,6.05
2022-12-28T22:27:05.888Z,6.03
2022-12-28T22:29:09.137Z,6.04
2022-12-28T22:31:12.358Z,6.01
2022-12-28T22:33:16.412Z,6.00
2022-12-28T22:35:19.806Z,6.02
2022-12-28T22:37:23.417Z,6.01
2022-12-28T22:39:26.685Z,6.00
2022-12-28T22:41:29.965Z,6.00
2022-12-28T22:43:34.781Z,6.00
2022-12-28T22:45:37.992Z,6.00
2022-12-28T22:47:42.216Z,6.00
2022-12-28T22:49:45.408Z,5.99
2022-12-28T22:51:49.020Z,5.99
2022-12-28T22:53:52.201Z,5.98
2022-12-28T22:55:58.971Z,5.97
2022-12-28T22:58:02.201Z,5.95
2022-12-28T23:00:09.984Z,5.94
2022-12-28T23:02:13.546Z,5.93
2022-12-28T23:04:18.103Z,5.91
2022-12-28T23:06:21.780Z,5.90
2022-12-28T23:08:25.057Z,5.89
2022-12-28T23:10:28.383Z,5.90
2022-12-28T23:12:31.661Z,5.88
2022-12-28T23:14:52.774Z,5.89
2022-12-28T23:16:57.772Z,5.87
2022-12-28T23:19:18.396Z,5.87
2022-12-28T23:21:41.094Z,5.88
2022-12-28T23:24:01.831Z,5.89
2022-12-28T23:26:22.375Z,5.88
2022-12-28T23:28:26.012Z,5.89
2022-12-28T23:30:30.123Z,5.88
2022-12-28T23:32:34.771Z,5.89
2022-12-28T23:34:38.050Z,5.90
2022-12-28T23:36:41.234Z,5.91
2022-12-28T23:38:44.525Z,5.91
2022-12-28T23:41:07.792Z,5.92
2022-12-28T23:43:11.143Z,5.91
2022-12-28T23:45:16.630Z,5.91
2022-12-28T23:47:21.249Z,5.89
2022-12-28T23:49:26.045Z,5.87
2022-12-28T23:51:29.262Z,5.87
2022-12-28T23:53:32.545Z,5.83
2022-12-28T23:55:37.062Z,5.83
2022-12-28T23:57:40.680Z,5.83
2022-12-28T23:59:44.800Z,5.82
